sensor_id;sensor_type;location;lat;lon;timestamp;P1;durP1;ratioP1;P2;durP2;ratioP2
27889;SDS011;15238;49.082;9.102;2022-07-05T00:01:51;4.95;;;1.05;;
27889;SDS011;15238;49.082;9.102;2022-07-05T00:03:51;10.90;;;1.20;;
27889;SDS011;15238;49.082;9.102;2022-07-05T00:05:52;4.43;;;1.10;;
27889;SDS011;15238;49.082;9.102;2022-07-05T00:07:53;1.95;;;1.00;;
27889;SDS011;15238;49.082;9.102;2022-07-05T00:09:54;3.95;;;1.30;;
27889;SDS011;15238;49.082;9.102;2022-07-05T00:11:56;2.42;;;1.20;;
27889;SDS011;15238;49.082;9.102;2022-07-05T00:13:56;2.53;;;1.38;;
27889;SDS011;15238;49.082;9.102;2022-07-05T00:15:57;2.55;;;1.20;;
27889;SDS011;15238;49.082;9.102;2022-07-05T00:17:57;2.00;;;1.00;;
27889;SDS011;15238;49.082;9.102;2022-07-05T00:19:58;4.47;;;1.15;;
27889;SDS011;15238;49.082;9.102;2022-07-05T00:21:59;5.13;;;1.40;;
27889;SDS011;15238;49.082;9.102;2022-07-05T00:23:59;1.08;;;0.82;;
27889;SDS011;15238;49.082;9.102;2022-07-05T00:26:00;1.17;;;0.80;;
27889;SDS011;15238;49.082;9.102;2022-07-05T00:28:00;3.63;;;1.08;;
27889;SDS011;15238;49.082;9.102;2022-07-05T00:30:01;6.93;;;0.80;;
27889;SDS011;15238;49.082;9.102;2022-07-05T00:32:03;3.45;;;1.08;;
27889;SDS011;15238;49.082;9.102;2022-07-05T00:34:03;1.95;;;0.82;;
27889;SDS011;15238;49.082;9.102;2022-07-05T00:36:04;2.83;;;0.88;;
27889;SDS011;15238;49.082;9.102;2022-07-05T00:38:05;5.18;;;0.90;;
27889;SDS011;15238;49.082;9.102;2022-07-05T00:40:05;3.63;;;1.10;;
27889;SDS011;15238;49.082;9.102;2022-07-05T00:42:07;1.95;;;0.80;;
27889;SDS011;15238;49.082;9.102;2022-07-05T00:44:09;2.70;;;0.95;;
27889;SDS011;15238;49.082;9.102;2022-07-05T00:46:11;0.70;;;0.65;;
27889;SDS011;15238;49.082;9.102;2022-07-05T00:48:11;2.90;;;0.90;;
27889;SDS011;15238;49.082;9.102;2022-07-05T00:50:12;1.92;;;0.90;;
27889;SDS011;15238;49.082;9.102;2022-07-05T00:52:12;2.85;;;0.70;;
27889;SDS011;15238;49.082;9.102;2022-07-05T00:54:13;1.92;;;0.82;;
27889;SDS011;15238;49.082;9.102;2022-07-05T00:56:14;3.80;;;1.38;;
27889;SDS011;15238;49.082;9.102;2022-07-05T00:58:15;2.00;;;0.93;;
27889;SDS011;15238;49.082;9.102;2022-07-05T01:00:15;2.67;;;1.00;;
27889;SDS011;15238;49.082;9.102;2022-07-05T01:02:16;2.10;;;1.20;;
27889;SDS011;15238;49.082;9.102;2022-07-05T01:04:19;2.05;;;1.00;;
27889;SDS011;15238;49.082;9.102;2022-07-05T01:06:20;1.45;;;1.00;;
27889;SDS011;15238;49.082;9.102;2022-07-05T01:08:21;3.25;;;1.08;;
27889;SDS011;15238;49.082;9.102;2022-07-05T01:10:23;2.08;;;0.98;;
27889;SDS011;15238;49.082;9.102;2022-07-05T01:12:24;4.40;;;1.20;;
27889;SDS011;15238;49.082;9.102;2022-07-05T01:14:25;2.13;;;0.85;;
27889;SDS011;15238;49.082;9.102;2022-07-05T01:16:25;2.10;;;1.02;;
27889;SDS011;15238;49.082;9.102;2022-07-05T01:18:26;3.08;;;1.20;;
27889;SDS011;15238;49.082;9.102;2022-07-05T01:20:28;2.65;;;0.80;;
27889;SDS011;15238;49.082;9.102;2022-07-05T01:22:32;2.08;;;0.73;;
27889;SDS011;15238;49.082;9.102;2022-07-05T01:24:51;1.33;;;0.80;;
27889;SDS011;15238;49.082;9.102;2022-07-05T01:26:52;4.13;;;0.93;;
27889;SDS011;15238;49.082;9.102;2022-07-05T01:28:53;2.08;;;0.88;;
27889;SDS011;15238;49.082;9.102;2022-07-05T01:30:54;3.65;;;1.42;;
27889;SDS011;15238;49.082;9.102;2022-07-05T01:32:54;1.83;;;1.13;;
27889;SDS011;15238;49.082;9.102;2022-07-05T01:34:55;2.88;;;1.23;;
27889;SDS011;15238;49.082;9.102;2022-07-05T01:36:56;4.63;;;1.20;;
27889;SDS011;15238;49.082;9.102;2022-07-05T01:38:56;1.30;;;0.82;;
27889;SDS011;15238;49.082;9.102;2022-07-05T01:40:57;2.80;;;1.10;;
27889;SDS011;15238;49.082;9.102;2022-07-05T01:42:57;2.83;;;1.27;;
27889;SDS011;15238;49.082;9.102;2022-07-05T01:44:59;6.30;;;1.35;;
27889;SDS011;15238;49.082;9.102;2022-07-05T01:47:03;2.50;;;1.15;;
27889;SDS011;15238;49.082;9.102;2022-07-05T01:49:08;3.88;;;1.48;;
27889;SDS011;15238;49.082;9.102;2022-07-05T01:51:22;3.85;;;1.30;;
27889;SDS011;15238;49.082;9.102;2022-07-05T01:53:32;1.35;;;0.98;;
27889;SDS011;15238;49.082;9.102;2022-07-05T01:55:33;4.07;;;1.13;;
27889;SDS011;15238;49.082;9.102;2022-07-05T01:57:34;4.63;;;1.17;;
27889;SDS011;15238;49.082;9.102;2022-07-05T01:59:35;5.65;;;1.08;;
27889;SDS011;15238;49.082;9.102;2022-07-05T02:01:37;2.40;;;0.90;;
27889;SDS011;15238;49.082;9.102;2022-07-05T02:03:41;1.75;;;1.00;;
27889;SDS011;15238;49.082;9.102;2022-07-05T02:05:43;2.15;;;0.90;;
27889;SDS011;15238;49.082;9.102;2022-07-05T02:07:46;1.50;;;0.90;;
27889;SDS011;15238;49.082;9.102;2022-07-05T02:09:47;1.63;;;0.90;;
27889;SDS011;15238;49.082;9.102;2022-07-05T02:11:48;1.25;;;0.70;;
27889;SDS011;15238;49.082;9.102;2022-07-05T02:13:48;1.50;;;0.90;;
27889;SDS011;15238;49.082;9.102;2022-07-05T02:15:49;3.95;;;1.00;;
27889;SDS011;15238;49.082;9.102;2022-07-05T02:17:49;2.53;;;1.20;;
27889;SDS011;15238;49.082;9.102;2022-07-05T02:19:50;1.00;;;0.90;;
27889;SDS011;15238;49.082;9.102;2022-07-05T02:21:50;4.80;;;1.27;;
27889;SDS011;15238;49.082;9.102;2022-07-05T02:23:51;1.77;;;1.35;;
27889;SDS011;15238;49.082;9.102;2022-07-05T02:25:51;2.05;;;1.23;;
27889;SDS011;15238;49.082;9.102;2022-07-05T02:27:52;3.28;;;1.25;;
27889;SDS011;15238;49.082;9.102;2022-07-05T02:29:53;3.92;;;1.20;;
27889;SDS011;15238;49.082;9.102;2022-07-05T02:31:53;4.40;;;1.20;;
27889;SDS011;15238;49.082;9.102;2022-07-05T02:33:54;2.80;;;1.00;;
27889;SDS011;15238;49.082;9.102;2022-07-05T02:35:54;2.15;;;0.98;;
27889;SDS011;15238;49.082;9.102;2022-07-05T02:37:55;5.70;;;1.27;;
27889;SDS011;15238;49.082;9.102;2022-07-05T02:39:55;1.77;;;1.20;;
27889;SDS011;15238;49.082;9.102;2022-07-05T02:41:56;3.97;;;1.55;;
27889;SDS011;15238;49.082;9.102;2022-07-05T02:43:56;2.05;;;1.20;;
27889;SDS011;15238;49.082;9.102;2022-07-05T02:45:57;4.47;;;1.50;;
27889;SDS011;15238;49.082;9.102;2022-07-05T02:47:57;3.00;;;1.60;;
27889;SDS011;15238;49.082;9.102;2022-07-05T02:49:58;1.95;;;1.60;;
27889;SDS011;15238;49.082;9.102;2022-07-05T02:52:02;2.75;;;1.25;;
27889;SDS011;15238;49.082;9.102;2022-07-05T02:54:03;3.35;;;1.58;;
27889;SDS011;15238;49.082;9.102;2022-07-05T02:56:04;4.40;;;1.40;;
27889;SDS011;15238;49.082;9.102;2022-07-05T02:58:04;1.85;;;1.20;;
27889;SDS011;15238;49.082;9.102;2022-07-05T03:00:05;5.20;;;1.52;;
27889;SDS011;15238;49.082;9.102;2022-07-05T03:02:07;4.95;;;1.33;;
27889;SDS011;15238;49.082;9.102;2022-07-05T03:04:07;1.63;;;1.10;;
27889;SDS011;15238;49.082;9.102;2022-07-05T03:06:09;4.38;;;1.38;;
27889;SDS011;15238;49.082;9.102;2022-07-05T03:08:10;5.40;;;1.65;;
27889;SDS011;15238;49.082;9.102;2022-07-05T03:10:11;2.60;;;1.35;;
27889;SDS011;15238;49.082;9.102;2022-07-05T03:12:11;3.25;;;1.83;;
27889;SDS011;15238;49.082;9.102;2022-07-05T03:14:12;3.08;;;1.63;;
27889;SDS011;15238;49.082;9.102;2022-07-05T03:16:12;3.28;;;1.50;;
27889;SDS011;15238;49.082;9.102;2022-07-05T03:18:13;2.83;;;1.40;;
27889;SDS011;15238;49.082;9.102;2022-07-05T03:20:14;4.20;;;1.50;;
27889;SDS011;15238;49.082;9.102;2022-07-05T03:22:14;3.50;;;1.70;;
27889;SDS011;15238;49.082;9.102;2022-07-05T03:24:15;2.83;;;1.50;;
27889;SDS011;15238;49.082;9.102;2022-07-05T03:26:15;3.28;;;1.50;;
27889;SDS011;15238;49.082;9.102;2022-07-05T03:28:16;4.25;;;1.65;;
27889;SDS011;15238;49.082;9.102;2022-07-05T03:30:16;2.53;;;1.60;;
27889;SDS011;15238;49.082;9.102;2022-07-05T03:32:17;2.03;;;1.40;;
27889;SDS011;15238;49.082;9.102;2022-07-05T03:34:17;2.90;;;1.63;;
27889;SDS011;15238;49.082;9.102;2022-07-05T03:36:18;3.40;;;1.80;;
27889;SDS011;15238;49.082;9.102;2022-07-05T03:38:18;9.50;;;1.90;;
27889;SDS011;15238;49.082;9.102;2022-07-05T03:40:19;3.85;;;1.65;;
27889;SDS011;15238;49.082;9.102;2022-07-05T03:42:20;3.97;;;1.70;;
27889;SDS011;15238;49.082;9.102;2022-07-05T03:44:20;3.53;;;1.73;;
27889;SDS011;15238;49.082;9.102;2022-07-05T03:46:21;3.53;;;1.55;;
27889;SDS011;15238;49.082;9.102;2022-07-05T03:48:21;3.70;;;1.65;;
27889;SDS011;15238;49.082;9.102;2022-07-05T03:50:22;2.20;;;1.52;;
27889;SDS011;15238;49.082;9.102;2022-07-05T03:52:23;2.53;;;1.70;;
27889;SDS011;15238;49.082;9.102;2022-07-05T03:54:23;5.30;;;1.80;;
27889;SDS011;15238;49.082;9.102;2022-07-05T03:56:24;4.88;;;2.47;;
27889;SDS011;15238;49.082;9.102;2022-07-05T03:58:24;5.07;;;1.75;;
27889;SDS011;15238;49.082;9.102;2022-07-05T04:00:25;1.83;;;1.15;;
27889;SDS011;15238;49.082;9.102;2022-07-05T04:02:25;3.15;;;0.95;;
27889;SDS011;15238;49.082;9.102;2022-07-05T04:04:26;2.53;;;1.15;;
27889;SDS011;15238;49.082;9.102;2022-07-05T04:06:27;3.10;;;1.20;;
27889;SDS011;15238;49.082;9.102;2022-07-05T04:08:27;4.78;;;1.27;;
27889;SDS011;15238;49.082;9.102;2022-07-05T04:10:28;1.25;;;0.80;;
27889;SDS011;15238;49.082;9.102;2022-07-05T04:12:28;1.88;;;0.93;;
27889;SDS011;15238;49.082;9.102;2022-07-05T04:14:29;3.17;;;1.27;;
27889;SDS011;15238;49.082;9.102;2022-07-05T04:16:29;2.92;;;1.17;;
27889;SDS011;15238;49.082;9.102;2022-07-05T04:18:30;2.08;;;1.35;;
27889;SDS011;15238;49.082;9.102;2022-07-05T04:20:30;6.10;;;1.52;;
27889;SDS011;15238;49.082;9.102;2022-07-05T04:22:31;8.45;;;1.75;;
27889;SDS011;15238;49.082;9.102;2022-07-05T04:24:31;3.45;;;1.23;;
27889;SDS011;15238;49.082;9.102;2022-07-05T04:26:52;7.10;;;1.25;;
27889;SDS011;15238;49.082;9.102;2022-07-05T04:28:52;5.63;;;1.70;;
27889;SDS011;15238;49.082;9.102;2022-07-05T04:30:53;7.20;;;1.65;;
27889;SDS011;15238;49.082;9.102;2022-07-05T04:32:53;6.03;;;2.65;;
27889;SDS011;15238;49.082;9.102;2022-07-05T04:34:54;11.07;;;2.20;;
27889;SDS011;15238;49.082;9.102;2022-07-05T04:36:55;3.83;;;1.48;;
27889;SDS011;15238;49.082;9.102;2022-07-05T04:38:55;4.47;;;2.20;;
27889;SDS011;15238;49.082;9.102;2022-07-05T04:40:56;5.65;;;1.75;;
27889;SDS011;15238;49.082;9.102;2022-07-05T04:42:57;7.75;;;1.77;;
27889;SDS011;15238;49.082;9.102;2022-07-05T04:44:57;4.70;;;1.83;;
27889;SDS011;15238;49.082;9.102;2022-07-05T04:46:58;3.42;;;1.55;;
27889;SDS011;15238;49.082;9.102;2022-07-05T04:48:59;3.08;;;1.83;;
27889;SDS011;15238;49.082;9.102;2022-07-05T04:50:59;2.33;;;1.80;;
27889;SDS011;15238;49.082;9.102;2022-07-05T04:53:00;5.43;;;1.98;;
27889;SDS011;15238;49.082;9.102;2022-07-05T04:55:00;2.83;;;2.15;;
27889;SDS011;15238;49.082;9.102;2022-07-05T04:57:01;5.25;;;1.75;;
27889;SDS011;15238;49.082;9.102;2022-07-05T04:59:02;3.50;;;1.83;;
27889;SDS011;15238;49.082;9.102;2022-07-05T05:01:02;2.50;;;1.92;;
27889;SDS011;15238;49.082;9.102;2022-07-05T05:03:03;7.30;;;2.28;;
27889;SDS011;15238;49.082;9.102;2022-07-05T05:05:04;5.25;;;1.85;;
27889;SDS011;15238;49.082;9.102;2022-07-05T05:07:05;3.60;;;1.95;;
27889;SDS011;15238;49.082;9.102;2022-07-05T05:09:05;3.28;;;2.00;;
27889;SDS011;15238;49.082;9.102;2022-07-05T05:11:06;5.18;;;1.70;;
27889;SDS011;15238;49.082;9.102;2022-07-05T05:13:07;5.82;;;1.70;;
27889;SDS011;15238;49.082;9.102;2022-07-05T05:15:07;6.80;;;1.60;;
27889;SDS011;15238;49.082;9.102;2022-07-05T05:17:09;8.75;;;1.48;;
27889;SDS011;15238;49.082;9.102;2022-07-05T05:19:10;5.18;;;1.60;;
27889;SDS011;15238;49.082;9.102;2022-07-05T05:21:10;8.52;;;1.73;;
27889;SDS011;15238;49.082;9.102;2022-07-05T05:23:11;5.88;;;1.52;;
27889;SDS011;15238;49.082;9.102;2022-07-05T05:25:12;5.30;;;1.60;;
27889;SDS011;15238;49.082;9.102;2022-07-05T05:27:13;3.63;;;2.30;;
27889;SDS011;15238;49.082;9.102;2022-07-05T05:29:13;8.10;;;1.80;;
27889;SDS011;15238;49.082;9.102;2022-07-05T05:31:14;7.45;;;1.63;;
27889;SDS011;15238;49.082;9.102;2022-07-05T05:33:15;5.22;;;1.65;;
27889;SDS011;15238;49.082;9.102;2022-07-05T05:35:15;2.97;;;1.50;;
27889;SDS011;15238;49.082;9.102;2022-07-05T05:37:20;4.13;;;1.40;;
27889;SDS011;15238;49.082;9.102;2022-07-05T05:39:21;4.10;;;1.35;;
27889;SDS011;15238;49.082;9.102;2022-07-05T05:41:21;3.92;;;1.10;;
27889;SDS011;15238;49.082;9.102;2022-07-05T05:43:22;4.88;;;1.35;;
27889;SDS011;15238;49.082;9.102;2022-07-05T05:45:23;3.08;;;1.23;;
27889;SDS011;15238;49.082;9.102;2022-07-05T05:47:23;3.63;;;1.13;;
27889;SDS011;15238;49.082;9.102;2022-07-05T05:49:24;5.78;;;0.98;;
27889;SDS011;15238;49.082;9.102;2022-07-05T05:51:24;2.03;;;1.15;;
27889;SDS011;15238;49.082;9.102;2022-07-05T05:53:25;3.30;;;1.10;;
27889;SDS011;15238;49.082;9.102;2022-07-05T05:55:26;3.35;;;0.93;;
27889;SDS011;15238;49.082;9.102;2022-07-05T05:57:28;3.63;;;1.30;;
27889;SDS011;15238;49.082;9.102;2022-07-05T05:59:29;2.83;;;1.15;;
27889;SDS011;15238;49.082;9.102;2022-07-05T06:01:29;6.28;;;1.30;;
27889;SDS011;15238;49.082;9.102;2022-07-05T06:03:30;2.25;;;0.98;;
27889;SDS011;15238;49.082;9.102;2022-07-05T06:05:30;2.05;;;1.05;;
27889;SDS011;15238;49.082;9.102;2022-07-05T06:07:31;1.65;;;1.10;;
27889;SDS011;15238;49.082;9.102;2022-07-05T06:09:42;2.83;;;1.02;;
27889;SDS011;15238;49.082;9.102;2022-07-05T06:11:42;1.90;;;1.00;;
27889;SDS011;15238;49.082;9.102;2022-07-05T06:13:43;4.18;;;1.27;;
27889;SDS011;15238;49.082;9.102;2022-07-05T06:15:44;7.55;;;1.00;;
27889;SDS011;15238;49.082;9.102;2022-07-05T06:17:45;3.05;;;1.17;;
27889;SDS011;15238;49.082;9.102;2022-07-05T06:19:46;5.40;;;1.00;;
27889;SDS011;15238;49.082;9.102;2022-07-05T06:21:47;2.15;;;0.93;;
27889;SDS011;15238;49.082;9.102;2022-07-05T06:23:47;1.90;;;1.08;;
27889;SDS011;15238;49.082;9.102;2022-07-05T06:25:48;3.25;;;1.10;;
27889;SDS011;15238;49.082;9.102;2022-07-05T06:27:49;3.13;;;1.20;;
27889;SDS011;15238;49.082;9.102;2022-07-05T06:29:54;4.88;;;1.10;;
27889;SDS011;15238;49.082;9.102;2022-07-05T06:31:54;2.25;;;1.20;;
27889;SDS011;15238;49.082;9.102;2022-07-05T06:33:55;7.82;;;1.38;;
27889;SDS011;15238;49.082;9.102;2022-07-05T06:35:55;4.20;;;1.20;;
27889;SDS011;15238;49.082;9.102;2022-07-05T06:38:00;5.25;;;1.27;;
27889;SDS011;15238;49.082;9.102;2022-07-05T06:40:02;3.17;;;0.82;;
27889;SDS011;15238;49.082;9.102;2022-07-05T06:42:03;3.55;;;1.33;;
27889;SDS011;15238;49.082;9.102;2022-07-05T06:44:04;7.25;;;1.48;;
27889;SDS011;15238;49.082;9.102;2022-07-05T06:46:05;4.82;;;1.27;;
27889;SDS011;15238;49.082;9.102;2022-07-05T06:48:06;2.85;;;0.95;;
27889;SDS011;15238;49.082;9.102;2022-07-05T06:50:08;1.70;;;0.70;;
27889;SDS011;15238;49.082;9.102;2022-07-05T06:52:10;1.30;;;0.60;;
27889;SDS011;15238;49.082;9.102;2022-07-05T06:54:11;1.85;;;0.85;;
27889;SDS011;15238;49.082;9.102;2022-07-05T06:56:11;2.20;;;0.70;;
27889;SDS011;15238;49.082;9.102;2022-07-05T06:58:12;2.30;;;0.90;;
27889;SDS011;15238;49.082;9.102;2022-07-05T07:00:12;4.78;;;1.00;;
27889;SDS011;15238;49.082;9.102;2022-07-05T07:02:14;3.08;;;0.70;;
27889;SDS011;15238;49.082;9.102;2022-07-05T07:04:15;1.63;;;0.70;;
27889;SDS011;15238;49.082;9.102;2022-07-05T07:06:17;1.75;;;0.70;;
27889;SDS011;15238;49.082;9.102;2022-07-05T07:08:17;4.15;;;0.88;;
27889;SDS011;15238;49.082;9.102;2022-07-05T07:10:37;2.38;;;0.93;;
27889;SDS011;15238;49.082;9.102;2022-07-05T07:12:37;1.92;;;0.52;;
27889;SDS011;15238;49.082;9.102;2022-07-05T07:14:38;3.30;;;0.70;;
27889;SDS011;15238;49.082;9.102;2022-07-05T07:16:38;2.15;;;0.98;;
27889;SDS011;15238;49.082;9.102;2022-07-05T07:18:39;1.75;;;0.70;;
27889;SDS011;15238;49.082;9.102;2022-07-05T07:20:39;1.75;;;0.80;;
27889;SDS011;15238;49.082;9.102;2022-07-05T07:22:40;1.23;;;0.70;;
27889;SDS011;15238;49.082;9.102;2022-07-05T07:24:40;3.78;;;0.80;;
27889;SDS011;15238;49.082;9.102;2022-07-05T07:26:41;3.92;;;0.90;;
27889;SDS011;15238;49.082;9.102;2022-07-05T07:29:00;3.13;;;0.65;;
27889;SDS011;15238;49.082;9.102;2022-07-05T07:31:00;1.35;;;0.60;;
27889;SDS011;15238;49.082;9.102;2022-07-05T07:33:01;1.75;;;0.65;;
27889;SDS011;15238;49.082;9.102;2022-07-05T07:35:01;4.65;;;0.85;;
27889;SDS011;15238;49.082;9.102;2022-07-05T07:37:02;1.58;;;0.90;;
27889;SDS011;15238;49.082;9.102;2022-07-05T07:39:04;2.15;;;0.90;;
27889;SDS011;15238;49.082;9.102;2022-07-05T07:41:04;3.17;;;0.85;;
27889;SDS011;15238;49.082;9.102;2022-07-05T07:43:05;3.08;;;1.00;;
27889;SDS011;15238;49.082;9.102;2022-07-05T07:45:05;1.52;;;0.70;;
27889;SDS011;15238;49.082;9.102;2022-07-05T07:47:06;3.05;;;1.00;;
27889;SDS011;15238;49.082;9.102;2022-07-05T07:49:07;4.38;;;0.90;;
27889;SDS011;15238;49.082;9.102;2022-07-05T07:51:08;3.85;;;1.15;;
27889;SDS011;15238;49.082;9.102;2022-07-05T07:53:09;2.85;;;0.80;;
27889;SDS011;15238;49.082;9.102;2022-07-05T07:55:10;3.88;;;0.70;;
27889;SDS011;15238;49.082;9.102;2022-07-05T07:57:10;3.95;;;0.63;;
27889;SDS011;15238;49.082;9.102;2022-07-05T07:59:11;4.85;;;0.88;;
27889;SDS011;15238;49.082;9.102;2022-07-05T08:01:11;2.90;;;0.73;;
27889;SDS011;15238;49.082;9.102;2022-07-05T08:03:13;2.92;;;0.77;;
27889;SDS011;15238;49.082;9.102;2022-07-05T08:05:14;5.82;;;0.70;;
27889;SDS011;15238;49.082;9.102;2022-07-05T08:07:14;1.33;;;0.70;;
27889;SDS011;15238;49.082;9.102;2022-07-05T08:09:15;5.00;;;0.68;;
27889;SDS011;15238;49.082;9.102;2022-07-05T08:11:15;1.27;;;0.82;;
27889;SDS011;15238;49.082;9.102;2022-07-05T08:13:16;5.05;;;1.33;;
27889;SDS011;15238;49.082;9.102;2022-07-05T08:15:16;3.85;;;0.70;;
27889;SDS011;15238;49.082;9.102;2022-07-05T08:17:17;1.90;;;0.43;;
27889;SDS011;15238;49.082;9.102;2022-07-05T08:19:20;4.43;;;0.45;;
27889;SDS011;15238;49.082;9.102;2022-07-05T08:21:39;2.90;;;0.73;;
27889;SDS011;15238;49.082;9.102;2022-07-05T08:23:40;1.55;;;0.50;;
27889;SDS011;15238;49.082;9.102;2022-07-05T08:25:41;2.15;;;0.60;;
27889;SDS011;15238;49.082;9.102;2022-07-05T08:27:41;4.85;;;0.63;;
27889;SDS011;15238;49.082;9.102;2022-07-05T08:29:42;2.15;;;0.70;;
27889;SDS011;15238;49.082;9.102;2022-07-05T08:31:44;5.10;;;0.93;;
27889;SDS011;15238;49.082;9.102;2022-07-05T08:33:49;0.98;;;0.50;;
27889;SDS011;15238;49.082;9.102;2022-07-05T08:35:49;4.25;;;0.60;;
27889;SDS011;15238;49.082;9.102;2022-07-05T08:37:50;3.95;;;0.75;;
27889;SDS011;15238;49.082;9.102;2022-07-05T08:39:50;5.63;;;1.08;;
27889;SDS011;15238;49.082;9.102;2022-07-05T08:41:52;3.00;;;0.60;;
27889;SDS011;15238;49.082;9.102;2022-07-05T08:43:52;2.50;;;0.50;;
27889;SDS011;15238;49.082;9.102;2022-07-05T08:45:55;3.28;;;0.90;;
27889;SDS011;15238;49.082;9.102;2022-07-05T08:47:58;1.98;;;0.70;;
27889;SDS011;15238;49.082;9.102;2022-07-05T08:50:00;1.45;;;0.60;;
27889;SDS011;15238;49.082;9.102;2022-07-05T08:52:01;8.48;;;0.82;;
27889;SDS011;15238;49.082;9.102;2022-07-05T08:54:04;7.35;;;0.82;;
27889;SDS011;15238;49.082;9.102;2022-07-05T08:56:06;1.38;;;0.40;;
27889;SDS011;15238;49.082;9.102;2022-07-05T08:58:07;1.50;;;0.50;;
27889;SDS011;15238;49.082;9.102;2022-07-05T09:00:08;1.08;;;0.50;;
27889;SDS011;15238;49.082;9.102;2022-07-05T09:02:10;1.27;;;0.85;;
27889;SDS011;15238;49.082;9.102;2022-07-05T09:04:13;1.38;;;0.43;;
27889;SDS011;15238;49.082;9.102;2022-07-05T09:06:16;2.63;;;0.63;;
27889;SDS011;15238;49.082;9.102;2022-07-05T09:08:18;2.67;;;0.45;;
27889;SDS011;15238;49.082;9.102;2022-07-05T09:10:19;1.38;;;0.68;;
27889;SDS011;15238;49.082;9.102;2022-07-05T09:12:21;2.33;;;0.80;;
27889;SDS011;15238;49.082;9.102;2022-07-05T09:14:22;2.13;;;0.60;;
27889;SDS011;15238;49.082;9.102;2022-07-05T09:16:24;2.38;;;0.70;;
27889;SDS011;15238;49.082;9.102;2022-07-05T09:18:40;4.43;;;0.75;;
27889;SDS011;15238;49.082;9.102;2022-07-05T09:20:45;5.13;;;0.60;;
27889;SDS011;15238;49.082;9.102;2022-07-05T09:24:52;2.40;;;0.57;;
27889;SDS011;15238;49.082;9.102;2022-07-05T09:26:53;2.25;;;0.52;;
27889;SDS011;15238;49.082;9.102;2022-07-05T09:29:03;2.10;;;0.73;;
27889;SDS011;15238;49.082;9.102;2022-07-05T09:31:06;3.50;;;0.70;;
27889;SDS011;15238;49.082;9.102;2022-07-05T09:33:34;1.67;;;1.02;;
27889;SDS011;15238;49.082;9.102;2022-07-05T09:35:52;6.72;;;0.82;;
27889;SDS011;15238;49.082;9.102;2022-07-05T09:37:57;2.63;;;0.95;;
27889;SDS011;15238;49.082;9.102;2022-07-05T09:39:58;2.20;;;0.80;;
27889;SDS011;15238;49.082;9.102;2022-07-05T09:44:25;0.73;;;0.65;;
27889;SDS011;15238;49.082;9.102;2022-07-05T09:46:29;0.95;;;0.60;;
27889;SDS011;15238;49.082;9.102;2022-07-05T09:48:31;2.50;;;0.60;;
27889;SDS011;15238;49.082;9.102;2022-07-05T09:50:35;1.75;;;0.68;;
27889;SDS011;15238;49.082;9.102;2022-07-05T09:52:37;1.15;;;0.60;;
27889;SDS011;15238;49.082;9.102;2022-07-05T09:54:40;3.00;;;0.45;;
27889;SDS011;15238;49.082;9.102;2022-07-05T09:56:59;2.28;;;0.65;;
27889;SDS011;15238;49.082;9.102;2022-07-05T09:59:12;1.00;;;0.50;;
27889;SDS011;15238;49.082;9.102;2022-07-05T10:03:28;1.48;;;0.50;;
27889;SDS011;15238;49.082;9.102;2022-07-05T10:05:29;4.85;;;0.80;;
27889;SDS011;15238;49.082;9.102;2022-07-05T10:07:31;1.40;;;0.60;;
27889;SDS011;15238;49.082;9.102;2022-07-05T10:09:33;1.15;;;0.63;;
27889;SDS011;15238;49.082;9.102;2022-07-05T10:11:33;5.05;;;0.70;;
27889;SDS011;15238;49.082;9.102;2022-07-05T10:13:37;1.85;;;0.52;;
27889;SDS011;15238;49.082;9.102;2022-07-05T10:15:39;2.58;;;0.43;;
27889;SDS011;15238;49.082;9.102;2022-07-05T10:17:46;0.50;;;0.50;;
27889;SDS011;15238;49.082;9.102;2022-07-05T10:19:47;2.80;;;0.63;;
27889;SDS011;15238;49.082;9.102;2022-07-05T10:21:48;1.42;;;0.60;;
27889;SDS011;15238;49.082;9.102;2022-07-05T10:23:50;1.23;;;0.60;;
27889;SDS011;15238;49.082;9.102;2022-07-05T10:25:53;5.38;;;1.15;;
27889;SDS011;15238;49.082;9.102;2022-07-05T10:27:57;1.50;;;0.65;;
27889;SDS011;15238;49.082;9.102;2022-07-05T10:29:58;5.82;;;0.90;;
27889;SDS011;15238;49.082;9.102;2022-07-05T10:31:59;5.32;;;0.70;;
27889;SDS011;15238;49.082;9.102;2022-07-05T10:34:02;1.10;;;0.50;;
27889;SDS011;15238;49.082;9.102;2022-07-05T10:36:09;5.03;;;0.50;;
27889;SDS011;15238;49.082;9.102;2022-07-05T10:38:13;2.00;;;0.50;;
27889;SDS011;15238;49.082;9.102;2022-07-05T10:40:14;1.15;;;0.50;;
27889;SDS011;15238;49.082;9.102;2022-07-05T10:42:18;1.20;;;0.60;;
27889;SDS011;15238;49.082;9.102;2022-07-05T10:44:26;3.10;;;0.70;;
27889;SDS011;15238;49.082;9.102;2022-07-05T10:46:32;1.52;;;0.50;;
27889;SDS011;15238;49.082;9.102;2022-07-05T10:48:37;2.65;;;0.60;;
27889;SDS011;15238;49.082;9.102;2022-07-05T10:53:00;2.58;;;0.80;;
27889;SDS011;15238;49.082;9.102;2022-07-05T10:55:17;2.58;;;0.80;;
27889;SDS011;15238;49.082;9.102;2022-07-05T10:57:22;2.10;;;0.65;;
27889;SDS011;15238;49.082;9.102;2022-07-05T10:59:23;4.57;;;0.40;;
27889;SDS011;15238;49.082;9.102;2022-07-05T11:03:37;4.25;;;0.95;;
27889;SDS011;15238;49.082;9.102;2022-07-05T11:05:47;2.20;;;0.70;;
27889;SDS011;15238;49.082;9.102;2022-07-05T11:08:00;1.42;;;0.50;;
27889;SDS011;15238;49.082;9.102;2022-07-05T11:10:03;5.18;;;0.85;;
27889;SDS011;15238;49.082;9.102;2022-07-05T11:12:07;2.85;;;0.90;;
27889;SDS011;15238;49.082;9.102;2022-07-05T11:16:35;2.58;;;0.68;;
27889;SDS011;15238;49.082;9.102;2022-07-05T11:18:36;1.30;;;0.55;;
27889;SDS011;15238;49.082;9.102;2022-07-05T11:20:36;6.00;;;0.85;;
27889;SDS011;15238;49.082;9.102;2022-07-05T11:22:41;2.20;;;0.60;;
27889;SDS011;15238;49.082;9.102;2022-07-05T11:25:00;2.58;;;0.73;;
27889;SDS011;15238;49.082;9.102;2022-07-05T11:27:03;1.52;;;0.50;;
27889;SDS011;15238;49.082;9.102;2022-07-05T11:31:40;7.53;;;0.77;;
27889;SDS011;15238;49.082;9.102;2022-07-05T11:33:42;1.98;;;0.95;;
27889;SDS011;15238;49.082;9.102;2022-07-05T11:35:43;4.22;;;0.80;;
27889;SDS011;15238;49.082;9.102;2022-07-05T11:42:10;1.40;;;0.60;;
27889;SDS011;15238;49.082;9.102;2022-07-05T11:44:19;2.60;;;0.90;;
27889;SDS011;15238;49.082;9.102;2022-07-05T11:46:19;0.80;;;0.50;;
27889;SDS011;15238;49.082;9.102;2022-07-05T11:48:20;2.00;;;0.50;;
27889;SDS011;15238;49.082;9.102;2022-07-05T11:50:29;1.30;;;0.50;;
27889;SDS011;15238;49.082;9.102;2022-07-05T11:52:35;1.20;;;0.60;;
27889;SDS011;15238;49.082;9.102;2022-07-05T11:54:36;4.10;;;0.80;;
27889;SDS011;15238;49.082;9.102;2022-07-05T11:56:38;1.92;;;0.60;;
27889;SDS011;15238;49.082;9.102;2022-07-05T11:58:38;3.65;;;0.70;;
27889;SDS011;15238;49.082;9.102;2022-07-05T12:00:39;1.73;;;0.77;;
27889;SDS011;15238;49.082;9.102;2022-07-05T12:02:43;3.60;;;1.15;;
27889;SDS011;15238;49.082;9.102;2022-07-05T12:04:50;2.45;;;0.70;;
27889;SDS011;15238;49.082;9.102;2022-07-05T12:06:52;3.67;;;0.82;;
27889;SDS011;15238;49.082;9.102;2022-07-05T12:09:04;1.60;;;0.70;;
27889;SDS011;15238;49.082;9.102;2022-07-05T12:11:05;1.40;;;0.60;;
27889;SDS011;15238;49.082;9.102;2022-07-05T12:13:24;2.75;;;0.70;;
27889;SDS011;15238;49.082;9.102;2022-07-05T12:15:25;0.80;;;0.50;;
27889;SDS011;15238;49.082;9.102;2022-07-05T12:17:26;1.88;;;0.65;;
27889;SDS011;15238;49.082;9.102;2022-07-05T12:19:27;1.88;;;0.57;;
27889;SDS011;15238;49.082;9.102;2022-07-05T12:21:27;0.98;;;0.70;;
27889;SDS011;15238;49.082;9.102;2022-07-05T12:23:28;1.52;;;0.68;;
27889;SDS011;15238;49.082;9.102;2022-07-05T12:25:29;2.15;;;0.80;;
27889;SDS011;15238;49.082;9.102;2022-07-05T12:27:31;1.20;;;0.70;;
27889;SDS011;15238;49.082;9.102;2022-07-05T12:29:34;5.25;;;0.80;;
27889;SDS011;15238;49.082;9.102;2022-07-05T12:31:35;1.15;;;0.60;;
27889;SDS011;15238;49.082;9.102;2022-07-05T12:33:35;4.43;;;0.68;;
27889;SDS011;15238;49.082;9.102;2022-07-05T12:35:37;1.17;;;0.70;;
27889;SDS011;15238;49.082;9.102;2022-07-05T12:37:43;4.40;;;0.70;;